Terminal Aerodrome Forecast
Issued by NWS Boston, MA

Home | Current Version | Previous Version | Text Only | Print | Product List | Glossary On
Versions: 1 2 3 4 5 6 7 8 9 10 11 12 13 14 15 16 17 18
000
FTUS41 KBOX 211504 AAA
TAFPVD
TAF AMD
KPVD 211504Z 2115/2212 31011G18KT P6SM FEW050
     FM212000 30009KT P6SM SKC
     FM220100 32006KT P6SM FEW060
     FM220300 34004KT P6SM SKC=

USA.gov is the U.S. government's official web portal to all federal, state and local government web resources and services.